Time;durP1;ratioP1;P1;durP2;ratioP2;P2;SDS_P1;SDS_P2;PMS_P1;PMS_P2;Temp;Humidity;BMP_temperature;BMP_pressure;BME280_temperature;BME280_humidity;BME280_pressure;Samples;Min_cycle;Max_cycle;Signal;HPM_P1;HPM_P2
2022/03/13 00:01:42;;;;;;;;;11.75;11.75;;;;;9.69;71.71;100491.22;5001544;28;45404;-67
2022/03/13 00:04:11;;;;;;;;;11.00;11.00;;;;;9.82;72.46;100496.72;5006488;28;45409;-68
2022/03/13 00:06:37;;;;;;;;;12.00;8.25;;;;;9.85;70.80;100507.16;5008795;28;45675;-67
2022/03/13 00:09:05;;;;;;;;;15.75;11.25;;;;;9.84;71.12;100501.94;5008589;28;45339;-67
2022/03/13 00:11:31;;;;;;;;;12.00;11.00;;;;;9.90;71.22;100494.50;5005576;28;45211;-67
2022/03/13 00:14:01;;;;;;;;;14.25;11.00;;;;;9.85;70.17;100501.84;5001564;28;46243;-67
2022/03/13 00:16:26;;;;;;;;;14.25;11.25;;;;;9.90;70.42;100497.16;5001771;28;45574;-67
2022/03/13 00:18:52;;;;;;;;;9.25;8.50;;;;;9.96;70.98;100499.47;5001506;28;45427;-67
2022/03/13 00:21:19;;;;;;;;;11.75;11.00;;;;;9.95;70.15;100494.25;5003599;28;46024;-68
2022/03/13 00:23:47;;;;;;;;;8.75;8.75;;;;;9.99;70.42;100498.44;5007673;28;45180;-68
2022/03/13 00:26:14;;;;;;;;;10.00;7.75;;;;;10.01;69.88;100497.41;5007471;28;45168;-67
2022/03/13 00:28:40;;;;;;;;;11.50;11.00;;;;;9.98;69.58;100486.97;4992559;28;45278;-68
2022/03/13 00:31:06;;;;;;;;;10.50;9.00;;;;;9.96;69.77;100472.06;5011966;28;45464;-67
2022/03/13 00:33:32;;;;;;;;;9.75;9.75;;;;;10.05;68.81;100498.13;4994337;28;45465;-71
2022/03/13 00:35:58;;;;;;;;;10.00;6.50;;;;;10.05;68.55;100485.69;4991936;28;45364;-69
2022/03/13 00:38:25;;;;;;;;;9.50;9.50;;;;;10.00;68.26;100477.09;4989659;28;45865;-68
2022/03/13 00:40:52;;;;;;;;;10.50;8.00;;;;;10.17;68.85;100491.28;5011929;28;45324;-69
2022/03/13 00:43:19;;;;;;;;;7.75;7.75;;;;;10.09;68.09;100485.53;5012926;28;45202;-69
2022/03/13 00:45:45;;;;;;;;;10.25;9.00;;;;;9.90;68.16;100457.31;5011962;28;44755;-68
2022/03/13 00:48:10;;;;;;;;;6.00;6.00;;;;;10.12;68.26;100478.22;5009726;28;45309;-67
2022/03/13 00:50:36;;;;;;;;;9.00;6.50;;;;;10.22;67.95;100494.56;5011179;28;45480;-67
2022/03/13 00:53:02;;;;;;;;;10.75;8.50;;;;;10.08;68.23;100457.22;5010360;28;45531;-69
2022/03/13 00:55:27;;;;;;;;;8.00;6.50;;;;;10.23;67.71;100486.50;5009760;28;44675;-67
2022/03/13 00:57:54;;;;;;;;;6.75;6.75;;;;;10.25;68.11;100486.41;5012274;28;45006;-69
2022/03/13 01:00:20;;;;;;;;;6.75;6.75;;;;;10.30;67.22;100481.69;4996067;28;45279;-67
2022/03/13 01:02:46;;;;;;;;;11.00;6.50;;;;;10.24;68.39;100477.56;4992377;28;46814;-67
2022/03/13 01:05:21;;;;;;;;;7.50;6.50;;;;;10.20;67.03;100480.47;5014961;28;44998;-68
2022/03/13 01:07:46;;;;;;;;;6.00;3.50;;;;;10.29;66.91;100480.00;5013871;28;45505;-67
2022/03/13 01:10:12;;;;;;;;;8.00;8.00;;;;;10.35;67.37;100484.94;5017124;28;45226;-68
2022/03/13 01:12:37;;;;;;;;;9.50;7.50;;;;;10.37;66.86;100488.38;5013820;28;45503;-66
2022/03/13 01:15:04;;;;;;;;;6.25;6.25;;;;;10.42;67.44;100482.81;5015087;28;44769;-67
2022/03/13 01:17:29;;;;;;;;;7.50;7.50;;;;;10.10;67.39;100415.50;5017169;28;45310;-67
2022/03/13 01:19:54;;;;;;;;;8.75;7.00;;;;;10.41;65.92;100460.66;5013544;28;44889;-67
2022/03/13 01:22:20;;;;;;;;;6.50;6.50;;;;;10.44;66.37;100470.28;5013209;28;46635;-68
2022/03/13 01:24:46;;;;;;;;;9.00;8.00;;;;;10.40;65.97;100450.97;4999321;28;44746;-67
2022/03/13 01:27:15;;;;;;;;;9.50;6.00;;;;;10.48;66.80;100479.78;5018101;28;44796;-69
2022/03/13 01:29:41;;;;;;;;;11.25;7.25;;;;;10.51;66.19;100468.97;5013763;28;45408;-69
2022/03/13 01:32:09;;;;;;;;;10.25;7.75;;;;;10.53;66.31;100465.25;5016000;28;44978;-67
2022/03/13 01:34:35;;;;;;;;;6.25;5.50;;;;;10.56;65.41;100462.44;5014724;28;46902;-68
2022/03/13 01:37:05;;;;;;;;;10.50;6.50;;;;;10.52;66.26;100454.72;5014417;28;45270;-69
2022/03/13 01:39:30;;;;;;;;;11.50;9.50;;;;;10.57;66.31;100447.34;5016138;28;44910;-69
2022/03/13 01:41:56;;;;;;;;;7.00;6.50;;;;;10.60;65.33;100458.66;5015291;28;45435;-68
2022/03/13 01:44:21;;;;;;;;;5.00;5.00;;;;;10.58;65.39;100444.59;5016220;28;45300;-69
2022/03/13 01:46:47;;;;;;;;;4.75;4.75;;;;;10.55;64.27;100444.78;5017364;28;45333;-67
2022/03/13 01:49:12;;;;;;;;;5.25;5.25;;;;;10.61;64.92;100443.56;4988507;28;44825;-66
2022/03/13 01:51:38;;;;;;;;;7.00;5.00;;;;;10.62;64.39;100446.13;5008787;28;45012;-68
2022/03/13 01:54:08;;;;;;;;;7.25;6.00;;;;;10.68;65.08;100436.94;5011252;28;45536;-68
2022/03/13 01:56:36;;;;;;;;;9.50;6.00;;;;;10.67;64.92;100442.31;5014314;28;45535;-67
2022/03/13 01:59:03;;;;;;;;;6.75;5.50;;;;;10.62;64.49;100427.50;4996245;28;45349;-68
2022/03/13 02:01:30;;;;;;;;;6.00;6.00;;;;;10.72;65.35;100440.28;4993886;28;46846;-68
2022/03/13 02:03:56;;;;;;;;;6.50;6.00;;;;;10.70;65.15;100436.84;4997092;28;45392;-68
2022/03/13 02:06:26;;;;;;;;;6.00;4.25;;;;;10.71;63.97;100430.59;5014738;28;45278;-68
2022/03/13 02:08:54;;;;;;;;;7.00;7.00;;;;;10.68;65.33;100425.41;4995918;28;44876;-66
2022/03/13 02:11:22;;;;;;;;;6.00;6.00;;;;;10.66;65.37;100419.34;4991352;28;46605;-69
2022/03/13 02:13:49;;;;;;;;;7.75;6.00;;;;;10.59;64.59;100414.41;5011004;28;45498;-69
2022/03/13 02:16:17;;;;;;;;;7.50;7.50;;;;;10.59;64.55;100414.41;5014566;28;44794;-66
2022/03/13 02:18:47;;;;;;;;;8.00;6.00;;;;;10.53;64.94;100403.25;5010741;28;45429;-68
2022/03/13 02:21:12;;;;;;;;;6.00;6.00;;;;;10.44;64.88;100401.16;5011555;28;45467;-68
2022/03/13 02:23:38;;;;;;;;;8.00;6.50;;;;;10.48;65.36;100410.66;5014907;28;45456;-70
2022/03/13 02:26:06;;;;;;;;;7.00;7.00;;;;;10.43;64.90;100402.09;5017923;28;45237;-68
2022/03/13 02:28:34;;;;;;;;;6.50;5.75;;;;;10.36;65.05;100393.63;5013655;28;44854;-66
2022/03/13 02:31:05;;;;;;;;;8.00;6.50;;;;;10.36;65.77;100398.94;5001765;28;45138;-69
2022/03/13 02:33:31;;;;;;;;;10.50;5.00;;;;;10.36;65.22;100395.41;5018715;28;44869;-70
2022/03/13 02:35:59;;;;;;;;;6.50;3.75;;;;;10.32;65.66;100386.78;5017971;28;45328;-68
2022/03/13 02:38:27;;;;;;;;;7.25;7.25;;;;;10.24;65.99;100375.72;5017005;28;45317;-69
2022/03/13 02:40:53;;;;;;;;;8.00;6.50;;;;;10.25;66.34;100377.44;5009741;28;45453;-70
2022/03/13 02:43:19;;;;;;;;;7.00;7.00;;;;;10.23;65.40;100374.00;5003980;28;45322;-66
2022/03/13 02:45:44;;;;;;;;;7.00;5.75;;;;;10.21;66.60;100373.22;5003296;28;45441;-67
2022/03/13 02:48:11;;;;;;;;;10.00;7.00;;;;;10.10;65.74;100365.00;4990445;28;45660;-68
2022/03/13 02:50:38;;;;;;;;;8.50;6.50;;;;;10.08;66.03;100369.56;5011601;28;45424;-68
2022/03/13 02:53:04;;;;;;;;;7.25;5.75;;;;;10.04;65.90;100368.88;5015042;28;45250;-68
2022/03/13 02:55:30;;;;;;;;;5.75;5.75;;;;;10.09;66.29;100382.75;5009591;28;45719;-67
2022/03/13 02:57:56;;;;;;;;;8.00;6.00;;;;;10.08;65.97;100374.88;5005710;28;45200;-68
2022/03/13 03:00:39;;;;;;;;;7.00;7.00;;;;;9.99;66.39;100365.63;5005907;28;45349;-71
2022/03/13 03:03:05;;;;;;;;;10.00;7.25;;;;;10.01;66.42;100371.69;5004580;28;44771;-69
2022/03/13 03:05:31;;;;;;;;;8.25;8.25;;;;;10.01;66.18;100374.34;5005772;28;45459;-68
2022/03/13 03:07:57;;;;;;;;;7.75;7.00;;;;;9.97;66.39;100383.44;5006046;28;45958;-70
2022/03/13 03:10:22;;;;;;;;;6.50;6.50;;;;;9.84;67.04;100351.41;4987641;28;47206;-69
2022/03/13 03:12:48;;;;;;;;;7.50;7.50;;;;;9.89;66.86;100370.59;5009128;28;45369;-68
2022/03/13 03:15:18;;;;;;;;;6.75;6.75;;;;;9.88;66.63;100370.66;4990479;28;45382;-67
2022/03/13 03:17:43;;;;;;;;;7.00;7.00;;;;;9.82;66.37;100361.25;4992047;28;45503;-67
2022/03/13 03:20:11;;;;;;;;;8.25;6.25;;;;;9.85;65.97;100371.72;5000917;28;46216;-68
2022/03/13 03:22:36;;;;;;;;;12.75;7.00;;;;;9.82;65.68;100366.56;5000856;28;45467;-69
2022/03/13 03:25:03;;;;;;;;;11.00;10.50;;;;;9.77;65.91;100355.38;5001833;28;46014;-69
2022/03/13 03:27:30;;;;;;;;;15.50;10.00;;;;;9.83;65.76;100370.09;5006028;28;45004;-67
2022/03/13 03:29:56;;;;;;;;;8.25;7.75;;;;;9.72;66.20;100346.78;5003665;28;45476;-67
2022/03/13 03:32:21;;;;;;;;;11.00;6.50;;;;;9.71;66.31;100350.38;5002247;28;45372;-71
2022/03/13 03:34:47;;;;;;;;;7.00;7.00;;;;;9.58;65.71;100331.63;5000634;28;45489;-68
2022/03/13 03:37:12;;;;;;;;;10.50;10.50;;;;;9.69;65.91;100362.91;5002925;28;45434;-66
2022/03/13 03:39:38;;;;;;;;;9.50;9.50;;;;;9.66;66.28;100353.31;5001127;28;45537;-68
2022/03/13 03:42:03;;;;;;;;;6.75;6.75;;;;;9.65;66.53;100369.34;4997673;28;45428;-69
2022/03/13 03:44:29;;;;;;;;;12.50;8.25;;;;;9.64;66.17;100354.34;4983230;28;45265;-69
2022/03/13 03:46:55;;;;;;;;;7.75;7.75;;;;;9.60;66.60;100358.94;4985958;28;45427;-67
2022/03/13 03:49:20;;;;;;;;;10.25;7.75;;;;;9.61;66.62;100354.50;5005018;28;45239;-69
2022/03/13 03:51:46;;;;;;;;;9.25;9.25;;;;;9.60;65.58;100352.78;5004574;28;45487;-67
2022/03/13 03:54:14;;;;;;;;;9.75;9.00;;;;;9.34;65.87;100317.06;5003256;28;46026;-68
2022/03/13 03:56:40;;;;;;;;;10.00;7.25;;;;;9.59;66.46;100356.38;5001389;28;45976;-66
2022/03/13 03:59:06;;;;;;;;;8.25;8.25;;;;;9.54;66.00;100361.09;4998233;28;45562;-68
2022/03/13 04:01:38;;;;;;;;;14.25;8.25;;;;;9.49;65.65;100355.16;4985554;28;45404;-66
2022/03/13 04:04:08;;;;;;;;;12.25;11.00;;;;;9.50;66.40;100356.88;5004997;28;44826;-67
2022/03/13 04:06:38;;;;;;;;;6.50;6.50;;;;;9.46;66.04;100362.38;5004154;28;45445;-67
2022/03/13 04:09:04;;;;;;;;;14.00;10.00;;;;;9.39;66.55;100345.09;5000278;28;46257;-68
2022/03/13 04:11:29;;;;;;;;;12.50;11.50;;;;;9.40;66.14;100353.91;4986461;28;45385;-67
2022/03/13 04:13:55;;;;;;;;;11.25;10.50;;;;;9.43;65.58;100356.38;4999797;28;45286;-66
2022/03/13 04:16:21;;;;;;;;;10.00;10.00;;;;;9.40;65.66;100353.91;5003656;28;45747;-68
2022/03/13 04:18:47;;;;;;;;;11.75;10.25;;;;;9.27;65.47;100329.84;5007583;28;45459;-67
2022/03/13 04:21:13;;;;;;;;;11.00;11.00;;;;;9.37;65.79;100360.22;5005089;28;45259;-67
2022/03/13 04:23:38;;;;;;;;;13.00;11.00;;;;;9.33;64.98;100355.16;5001911;28;45346;-68
2022/03/13 04:26:04;;;;;;;;;10.50;10.00;;;;;9.38;65.44;100361.94;5002435;28;45329;-68
2022/03/13 04:28:30;;;;;;;;;11.00;9.00;;;;;9.36;65.84;100349.69;5004538;28;45409;-68
2022/03/13 04:30:58;;;;;;;;;10.00;10.00;;;;;9.35;66.16;100351.47;4991959;28;45352;-66
2022/03/13 04:33:25;;;;;;;;;7.00;7.00;;;;;9.49;65.36;100360.47;4994470;28;45325;-68
2022/03/13 04:35:52;;;;;;;;;9.25;9.00;;;;;9.49;65.03;100366.66;5009082;28;45326;-68
2022/03/13 04:38:17;;;;;;;;;10.00;10.00;;;;;9.41;64.86;100353.81;5005653;28;45356;-66
2022/03/13 04:40:43;;;;;;;;;9.00;9.00;;;;;9.48;65.41;100356.13;5008118;28;44747;-67
2022/03/13 04:43:08;;;;;;;;;7.75;6.50;;;;;9.54;65.21;100363.75;4993752;28;45309;-69
2022/03/13 04:45:34;;;;;;;;;9.25;8.00;;;;;9.50;65.21;100362.19;5009976;28;45634;-66
2022/03/13 04:48:00;;;;;;;;;7.00;7.00;;;;;9.48;64.58;100359.63;4993046;28;45647;-68
2022/03/13 04:50:26;;;;;;;;;6.00;6.00;;;;;9.49;64.26;100353.38;5005723;28;45319;-68
2022/03/13 04:52:51;;;;;;;;;9.75;6.25;;;;;9.44;63.70;100361.59;5003982;28;45155;-68
2022/03/13 04:55:18;;;;;;;;;6.00;6.00;;;;;9.51;63.62;100361.28;5002044;28;45576;-68
2022/03/13 04:57:43;;;;;;;;;7.25;7.25;;;;;9.45;64.16;100341.22;5009616;28;45209;-67
2022/03/13 05:00:09;;;;;;;;;2.75;2.75;;;;;9.58;64.21;100355.53;5012535;28;45290;-68
2022/03/13 05:02:35;;;;;;;;;6.00;5.25;;;;;9.45;63.42;100328.81;5006617;28;45425;-68
2022/03/13 05:05:01;;;;;;;;;5.00;5.00;;;;;9.63;63.75;100357.91;4992345;28;45393;-68
2022/03/13 05:07:27;;;;;;;;;4.00;4.00;;;;;9.56;63.23;100345.94;5009651;28;45507;-69
2022/03/13 05:09:52;;;;;;;;;6.50;5.75;;;;;9.66;62.97;100352.47;5007676;28;45281;-68
2022/03/13 05:12:21;;;;;;;;;9.50;7.50;;;;;9.20;63.68;100275.38;4988537;28;44795;-67
2022/03/13 05:14:47;;;;;;;;;8.50;5.75;;;;;9.64;62.99;100352.53;5002381;28;45353;-66
2022/03/13 05:17:12;;;;;;;;;5.00;5.00;;;;;9.69;63.34;100347.81;5004527;28;45538;-67
2022/03/13 05:19:38;;;;;;;;;3.00;3.00;;;;;9.61;62.70;100319.97;5003152;28;45639;-67
2022/03/13 05:22:04;;;;;;;;;6.00;4.25;;;;;9.70;63.14;100338.06;5004081;28;45342;-67
2022/03/13 05:24:29;;;;;;;;;7.00;5.25;;;;;9.71;63.13;100345.06;5000649;28;45527;-68
2022/03/13 05:26:54;;;;;;;;;4.50;2.00;;;;;9.66;62.58;100347.16;4990883;28;45282;-67
2022/03/13 05:29:20;;;;;;;;;10.00;4.00;;;;;9.64;63.15;100339.28;5004069;28;45352;-68
2022/03/13 05:31:45;;;;;;;;;5.00;5.00;;;;;9.69;62.12;100352.28;5006795;28;45634;-68
2022/03/13 05:34:11;;;;;;;;;2.25;2.25;;;;;9.63;62.82;100345.50;5003256;28;45448;-68
2022/03/13 05:36:37;;;;;;;;;5.50;4.50;;;;;9.62;62.32;100346.44;5001656;28;46907;-67
2022/03/13 05:39:03;;;;;;;;;3.50;3.00;;;;;9.63;62.38;100349.94;5000071;28;45538;-69
2022/03/13 05:41:30;;;;;;;;;8.00;6.25;;;;;9.67;62.54;100359.47;4990571;28;45334;-68
2022/03/13 05:43:56;;;;;;;;;3.00;3.00;;;;;9.69;62.56;100363.75;5012089;28;45215;-69
2022/03/13 05:46:22;;;;;;;;;3.00;3.00;;;;;9.68;61.56;100361.19;5009824;28;45399;-67
2022/03/13 05:48:47;;;;;;;;;5.00;3.25;;;;;9.65;62.57;100362.22;5004435;28;45369;-68
2022/03/13 05:51:12;;;;;;;;;3.50;3.00;;;;;9.64;62.42;100364.97;5002778;28;46893;-68
2022/03/13 05:53:38;;;;;;;;;5.00;5.00;;;;;9.66;62.75;100358.63;4989929;28;45505;-71
2022/03/13 05:56:04;;;;;;;;;7.00;6.00;;;;;9.54;62.46;100335.41;5007268;28;46199;-68
2022/03/13 05:58:29;;;;;;;;;3.50;3.50;;;;;9.51;62.92;100337.38;5012597;28;46866;-68
2022/03/13 06:01:05;;;;;;;;;8.75;6.00;;;;;9.62;62.43;100364.16;5008439;28;45543;-69
2022/03/13 06:03:31;;;;;;;;;5.00;5.00;;;;;9.49;62.24;100349.84;5006235;28;45476;-68
2022/03/13 06:05:57;;;;;;;;;7.75;3.50;;;;;9.58;62.24;100362.63;5005283;28;46865;-67
2022/03/13 06:08:23;;;;;;;;;10.00;6.00;;;;;9.60;62.41;100369.56;5006743;28;45537;-68
2022/03/13 06:10:51;;;;;;;;;3.50;3.50;;;;;9.59;62.92;100361.69;5004324;28;45301;-68
2022/03/13 06:13:17;;;;;;;;;2.50;2.50;;;;;9.63;62.97;100384.47;5008437;28;45358;-66
2022/03/13 06:15:43;;;;;;;;;3.00;3.00;;;;;9.64;62.43;100375.59;5001081;28;45927;-69
2022/03/13 06:18:10;;;;;;;;;5.50;5.00;;;;;9.63;62.65;100369.38;5000537;28;45350;-68
2022/03/13 06:20:36;;;;;;;;;6.75;4.75;;;;;9.65;62.44;100370.19;5013710;28;44983;-68
2022/03/13 06:23:02;;;;;;;;;8.25;3.00;;;;;9.64;61.93;100376.44;5016358;28;44874;-68
2022/03/13 06:25:28;;;;;;;;;2.00;2.00;;;;;9.64;61.89;100388.88;5015209;28;45234;-68
2022/03/13 06:27:53;;;;;;;;;3.50;3.50;;;;;9.62;62.06;100383.59;5015757;28;45373;-68
2022/03/13 06:30:19;;;;;;;;;3.00;3.00;;;;;9.58;62.44;100381.22;5017691;28;45254;-68
2022/03/13 06:32:51;;;;;;;;;5.50;3.00;;;;;9.59;62.76;100382.94;5020350;28;45548;-68
2022/03/13 06:35:19;;;;;;;;;2.00;2.00;;;;;9.61;62.76;100383.69;5006160;28;45821;-68
2022/03/13 06:37:45;;;;;;;;;5.00;4.00;;;;;9.64;62.04;100383.56;5004914;28;45480;-69
2022/03/13 06:40:11;;;;;;;;;5.75;2.50;;;;;9.66;61.98;100385.19;5007581;28;45499;-68
2022/03/13 06:42:38;;;;;;;;;5.00;5.00;;;;;9.68;62.29;100390.41;5004982;28;46090;-69
2022/03/13 06:45:04;;;;;;;;;7.00;2.00;;;;;9.71;61.72;100390.22;4984714;28;46742;-66
2022/03/13 06:47:30;;;;;;;;;5.00;4.50;;;;;9.69;61.98;100382.34;5004400;28;45816;-68
2022/03/13 06:49:55;;;;;;;;;5.00;3.00;;;;;9.68;62.05;100377.13;5008545;28;45444;-69
2022/03/13 06:52:21;;;;;;;;;2.00;2.00;;;;;9.63;62.11;100371.19;5004424;28;45318;-66
2022/03/13 06:54:46;;;;;;;;;3.00;3.00;;;;;9.79;61.16;100390.66;5004956;28;46385;-65
2022/03/13 06:57:14;;;;;;;;;5.25;3.00;;;;;9.78;61.61;100386.28;5002747;28;45380;-65
2022/03/13 06:59:43;;;;;;;;;3.00;3.00;;;;;9.67;60.77;100375.41;5004543;28;45491;-67
2022/03/13 07:02:10;;;;;;;;;3.00;3.00;;;;;9.77;61.18;100394.34;5005115;28;45786;-68
2022/03/13 07:04:37;;;;;;;;;5.75;3.00;;;;;9.83;61.52;100386.88;5002059;28;46443;-68
2022/03/13 07:07:02;;;;;;;;;2.00;2.00;;;;;9.75;61.14;100373.16;5002596;28;45345;-70
2022/03/13 07:09:28;;;;;;;;;3.25;2.50;;;;;9.89;60.69;100386.53;5000054;28;45430;-67
2022/03/13 07:11:53;;;;;;;;;5.25;4.00;;;;;9.88;61.11;100390.13;5000397;28;45556;-66
2022/03/13 07:14:21;;;;;;;;;3.00;3.00;;;;;9.85;59.89;100374.38;5001615;28;45215;-68
2022/03/13 07:16:47;;;;;;;;;5.75;5.00;;;;;9.97;59.94;100386.97;5001357;28;45215;-69
2022/03/13 07:19:13;;;;;;;;;5.00;3.00;;;;;10.01;60.25;100384.97;4981725;28;45554;-65
2022/03/13 07:21:39;;;;;;;;;3.00;3.00;;;;;10.04;59.69;100384.81;4981981;28;45690;-67
2022/03/13 07:24:05;;;;;;;;;4.00;4.00;;;;;10.10;60.35;100375.63;5008743;28;46158;-66
2022/03/13 07:26:30;;;;;;;;;4.00;2.75;;;;;10.25;59.89;100377.44;5006219;28;45492;-66
2022/03/13 07:28:56;;;;;;;;;5.00;2.25;;;;;10.34;58.99;100376.91;5004453;28;45386;-67
2022/03/13 07:31:21;;;;;;;;;5.00;5.00;;;;;10.39;59.05;100371.31;5000725;28;45547;-67
2022/03/13 07:33:47;;;;;;;;;2.00;2.00;;;;;10.41;58.27;100372.06;4999490;28;45358;-66
2022/03/13 07:36:13;;;;;;;;;4.00;4.00;;;;;10.40;58.76;100375.69;4998529;28;45361;-67
2022/03/13 07:38:38;;;;;;;;;3.50;2.00;;;;;10.36;58.73;100372.34;4988947;28;44718;-65
2022/03/13 07:41:04;;;;;;;;;2.50;2.50;;;;;10.37;58.20;100376.72;5005192;28;45570;-66
2022/03/13 07:43:30;;;;;;;;;4.25;2.00;;;;;10.44;58.18;100388.72;5002940;28;46262;-66
2022/03/13 07:45:55;;;;;;;;;3.25;2.75;;;;;10.44;57.84;100387.88;4999899;28;45250;-67
2022/03/13 07:48:21;;;;;;;;;3.00;2.00;;;;;10.41;57.64;100393.34;5002193;28;45479;-67
2022/03/13 07:50:46;;;;;;;;;2.00;2.00;;;;;10.29;58.54;100357.72;5000858;28;45451;-67
2022/03/13 07:53:12;;;;;;;;;3.00;3.00;;;;;10.45;57.51;100394.88;5006354;28;45490;-67
2022/03/13 07:55:37;;;;;;;;;4.25;2.00;;;;;10.29;57.36;100365.69;5005499;28;45798;-67
2022/03/13 07:58:02;;;;;;;;;2.00;2.00;;;;;10.42;57.50;100385.28;5003719;28;45404;-68
2022/03/13 08:00:28;;;;;;;;;1.50;1.50;;;;;10.38;57.93;100378.44;4999893;28;45529;-67
2022/03/13 08:02:54;;;;;;;;;2.25;2.00;;;;;10.41;57.79;100378.25;5005260;28;46417;-66
2022/03/13 08:05:23;;;;;;;;;2.00;2.00;;;;;10.45;57.24;100394.88;4987939;28;45709;-68
2022/03/13 08:07:49;;;;;;;;;2.00;1.00;;;;;10.56;57.40;100397.78;5005337;28;45480;-68
2022/03/13 08:10:20;;;;;;;;;4.50;2.00;;;;;10.51;57.23;100387.38;5000238;28;45764;-66
2022/03/13 08:12:48;;;;;;;;;5.00;2.00;;;;;10.55;57.41;100383.63;4998472;28;45371;-72
2022/03/13 08:15:14;;;;;;;;;4.50;3.00;;;;;10.41;57.28;100359.63;4985098;28;45353;-68
2022/03/13 08:17:40;;;;;;;;;1.00;1.00;;;;;10.61;57.14;100385.06;4999515;28;45662;-68
2022/03/13 08:20:06;;;;;;;;;1.25;1.25;;;;;10.60;56.99;100362.91;4979547;28;45474;-68
2022/03/13 08:22:31;;;;;;;;;2.00;2.00;;;;;10.70;57.51;100383.66;4981592;28;46271;-66
2022/03/13 08:24:57;;;;;;;;;1.50;1.50;;;;;10.69;56.72;100371.31;4996971;28;45579;-64
2022/03/13 08:27:23;;;;;;;;;2.50;2.50;;;;;10.76;56.52;100367.31;5009491;28;44901;-65
2022/03/13 08:29:49;;;;;;;;;2.00;2.00;;;;;10.83;55.97;100374.00;5015263;28;45349;-67
2022/03/13 08:32:17;;;;;;;;;2.50;1.75;;;;;10.85;56.65;100369.44;5010338;28;45380;-67
2022/03/13 08:34:45;;;;;;;;;2.00;2.00;;;;;10.90;56.08;100370.00;5012094;28;45357;-65
2022/03/13 08:37:12;;;;;;;;;2.00;2.00;;;;;10.94;54.83;100360.91;5006984;28;45402;-67
2022/03/13 08:39:38;;;;;;;;;2.00;2.00;;;;;10.97;55.97;100362.50;5002972;28;45644;-67
2022/03/13 08:42:05;;;;;;;;;2.75;2.75;;;;;11.03;56.04;100368.28;5000214;28;45442;-71
2022/03/13 08:44:32;;;;;;;;;2.00;2.00;;;;;11.03;55.38;100356.78;5001540;28;45443;-67
2022/03/13 08:46:58;;;;;;;;;5.00;2.00;;;;;11.17;55.54;100362.97;5004470;28;44918;-66
2022/03/13 08:49:24;;;;;;;;;2.75;2.75;;;;;11.14;55.07;100341.88;5004546;28;45816;-68
2022/03/13 08:51:50;;;;;;;;;3.00;2.00;;;;;11.29;54.99;100366.69;5006689;28;46034;-67
2022/03/13 08:54:16;;;;;;;;;3.00;2.00;;;;;11.36;55.54;100370.69;5007676;28;44817;-66
2022/03/13 08:56:42;;;;;;;;;4.00;2.50;;;;;11.35;54.50;100344.16;5006917;28;45218;-69
2022/03/13 08:59:08;;;;;;;;;3.00;2.00;;;;;11.58;54.62;100364.84;5002730;28;46798;-67
2022/03/13 09:01:33;;;;;;;;;3.00;1.50;;;;;11.73;53.67;100361.22;5006060;28;45503;-68
2022/03/13 09:03:59;;;;;;;;;2.00;2.00;;;;;11.94;53.88;100363.47;5004896;28;45347;-65
2022/03/13 09:06:25;;;;;;;;;2.33;2.33;;;;;12.19;53.52;100358.22;4994686;28;45435;-67
2022/03/13 09:08:50;;;;;;;;;2.00;2.00;;;;;12.39;53.10;100365.75;5019972;28;45268;-67
2022/03/13 09:11:17;;;;;;;;;5.33;2.00;;;;;12.55;52.33;100367.38;5012956;28;45471;-66
2022/03/13 09:13:42;;;;;;;;;1.33;1.33;;;;;12.75;51.92;100377.53;4993519;28;45407;-66
2022/03/13 09:16:08;;;;;;;;;1.00;1.00;;;;;12.81;51.16;100361.13;4996176;28;45319;-67
2022/03/13 09:18:34;;;;;;;;;3.00;3.00;;;;;12.90;50.95;100354.31;4987296;28;45634;-66
2022/03/13 09:20:59;;;;;;;;;2.00;1.33;;;;;13.06;50.25;100360.28;5011372;28;45298;-65
2022/03/13 09:23:26;;;;;;;;;0.00;0.00;;;;;13.27;50.17;100349.91;5004333;28;45750;-64
2022/03/13 09:25:53;;;;;;;;;1.00;1.00;;;;;13.54;49.96;100369.34;5007292;28;45270;-59
2022/03/13 09:28:19;;;;;;;;;2.00;2.00;;;;;13.71;49.63;100370.78;4990624;28;45624;-59
2022/03/13 09:30:45;;;;;;;;;2.00;2.00;;;;;13.79;48.79;100370.22;4989854;28;47180;-60
2022/03/13 09:33:11;;;;;;;;;1.00;1.00;;;;;13.84;49.24;100371.59;5014140;28;45495;-63
2022/03/13 09:35:37;;;;;;;;;1.67;1.67;;;;;13.87;48.28;100359.81;5008833;28;45401;-58
2022/03/13 09:38:02;;;;;;;;;3.00;1.33;;;;;13.96;48.34;100372.53;5010421;28;45450;-59
2022/03/13 09:40:28;;;;;;;;;2.00;2.00;;;;;13.91;47.51;100358.63;5012154;28;45879;-61
2022/03/13 09:42:54;;;;;;;;;2.00;1.00;;;;;13.88;47.71;100374.91;5001157;28;45565;-59
2022/03/13 09:45:21;;;;;;;;;1.00;1.00;;;;;13.84;48.69;100374.28;5005599;28;46911;-58
2022/03/13 09:47:47;;;;;;;;;4.00;2.33;;;;;13.83;47.74;100374.38;5009203;28;45409;-57
2022/03/13 09:50:13;;;;;;;;;3.00;1.67;;;;;13.90;48.76;100372.09;5008566;28;45926;-61
2022/03/13 09:52:40;;;;;;;;;2.33;2.33;;;;;13.94;48.64;100353.06;5008370;28;45727;-63
2022/03/13 09:55:08;;;;;;;;;2.00;1.00;;;;;13.99;47.74;100369.63;5024476;28;44789;-61
2022/03/13 09:57:36;;;;;;;;;1.67;1.67;;;;;13.85;48.10;100365.28;5027162;28;45317;-65
2022/03/13 10:00:06;;;;;;;;;1.33;1.33;;;;;13.85;47.04;100380.47;5011405;28;45761;-66
2022/03/13 10:02:34;;;;;;;;;1.00;1.00;;;;;13.77;48.66;100377.50;5010144;28;45519;-62
2022/03/13 10:05:11;;;;;;;;;5.00;2.00;;;;;13.67;48.88;100381.78;5010334;28;44789;-61
2022/03/13 10:07:55;;;;;;;;;2.33;2.33;;;;;13.63;48.78;100375.81;5017034;28;45459;-62
2022/03/13 10:10:22;;;;;;;;;3.00;3.00;;;;;13.57;48.54;100379.81;4998372;28;46187;-61
2022/03/13 10:12:48;;;;;;;;;7.33;3.67;;;;;13.49;48.46;100374.13;5003157;28;45472;-61
2022/03/13 10:15:14;;;;;;;;;2.00;2.00;;;;;13.45;49.21;100372.66;5002903;28;45163;-60
2022/03/13 10:17:41;;;;;;;;;2.00;2.00;;;;;13.45;49.25;100372.66;5007855;28;45673;-60
2022/03/13 10:20:26;;;;;;;;;1.00;1.00;;;;;13.44;48.74;100364.75;5012000;28;47147;-60
2022/03/13 10:23:00;;;;;;;;;1.00;1.00;;;;;13.42;49.19;100372.88;5012459;28;45545;-62
2022/03/13 10:25:31;;;;;;;;;5.00;2.00;;;;;13.38;49.74;100366.03;5013931;28;44852;-62
2022/03/13 10:28:18;;;;;;;;;1.00;1.00;;;;;13.38;49.42;100378.53;5013244;28;45464;-61
2022/03/13 10:30:47;;;;;;;;;2.00;2.00;;;;;13.28;48.89;100365.84;5008333;28;45792;-64
2022/03/13 10:33:13;;;;;;;;;2.00;2.00;;;;;13.19;49.63;100357.63;5008255;28;45421;-62
2022/03/13 10:35:39;;;;;;;;;3.00;1.33;;;;;13.18;49.96;100347.88;5003586;28;45548;-61
2022/03/13 10:38:17;;;;;;;;;2.33;2.00;;;;;13.21;50.31;100345.03;4985295;28;45624;-62
2022/03/13 10:40:45;;;;;;;;;4.00;2.33;;;;;13.22;50.36;100357.41;5001834;28;45416;-60
2022/03/13 10:43:11;;;;;;;;;1.00;1.00;;;;;13.23;50.34;100353.78;4999883;28;45306;-61
2022/03/13 10:45:39;;;;;;;;;2.00;2.00;;;;;13.20;50.19;100352.19;4983513;28;45458;-66
2022/03/13 10:48:28;;;;;;;;;2.00;2.00;;;;;13.19;50.12;100354.97;5000871;28;45671;-61
2022/03/13 10:50:59;;;;;;;;;3.00;3.00;;;;;13.19;50.36;100345.13;4990419;28;45406;-61
2022/03/13 10:53:27;;;;;;;;;4.00;2.00;;;;;13.18;50.38;100331.84;4983098;28;45678;-60
2022/03/13 10:56:12;;;;;;;;;4.00;2.00;;;;;13.15;50.23;100337.41;4980362;28;45338;-62
2022/03/13 10:58:45;;;;;;;;;2.33;2.33;;;;;13.19;50.38;100344.28;4962730;28;45589;-62
2022/03/13 11:01:16;;;;;;;;;2.00;2.00;;;;;13.14;49.81;100346.38;4979906;28;46229;-63
2022/03/13 11:04:07;;;;;;;;;6.67;4.67;;;;;13.22;50.21;100349.41;4999779;28;45835;-67
2022/03/13 11:06:33;;;;;;;;;2.33;2.33;;;;;13.23;50.02;100341.28;5005270;28;45380;-59
2022/03/13 11:08:59;;;;;;;;;2.00;2.00;;;;;13.28;49.57;100339.16;5002600;28;45443;-66
2022/03/13 11:11:27;;;;;;;;;2.00;2.00;;;;;13.32;49.88;100353.13;5003840;28;45532;-63
2022/03/13 11:13:59;;;;;;;;;3.00;3.00;;;;;13.34;50.31;100356.53;5005442;28;45313;-60
2022/03/13 11:16:29;;;;;;;;;3.00;3.00;;;;;13.25;50.06;100344.69;4971297;28;45287;-65
2022/03/13 11:18:57;;;;;;;;;4.00;2.00;;;;;13.27;49.95;100355.25;4984202;28;45336;-61
2022/03/13 11:21:23;;;;;;;;;4.00;2.67;;;;;13.28;49.60;100343.59;4989812;28;48075;-65
2022/03/13 11:23:49;;;;;;;;;2.33;1.67;;;;;13.30;49.52;100352.38;4999981;28;45396;-69
2022/03/13 11:26:18;;;;;;;;;2.00;2.00;;;;;13.20;49.80;100346.00;4983860;28;45476;-64